createdAt,value
2017-07-22T00:00:03.331Z,94.06
2017-07-22T00:05:03.407Z,93.77
2017-07-22T00:10:02.852Z,93.49
2017-07-22T00:15:03.205Z,93.29
2017-07-22T00:20:02.689Z,93.1
2017-07-22T00:25:03.120Z,92.72
2017-07-22T00:30:03.518Z,92.33
2017-07-22T00:35:02.890Z,92.05
2017-07-22T00:40:03.463Z,91.56
2017-07-22T00:45:02.762Z,91.08
2017-07-22T00:50:03.110Z,90.51
2017-07-22T00:55:03.478Z,89.93
2017-07-22T01:00:02.865Z,89.45
2017-07-22T01:05:03.272Z,89.07
2017-07-22T01:10:02.763Z,88.2
2017-07-22T01:15:03.224Z,87.92
2017-07-22T01:20:02.737Z,87.34
2017-07-22T01:25:03.033Z,86.95
2017-07-22T01:30:03.307Z,86.38
2017-07-22T01:35:02.660Z,85.99
2017-07-22T01:40:03.062Z,85.41
2017-07-22T01:45:03.505Z,85.22
2017-07-22T01:50:02.806Z,85.13
2017-07-22T01:55:03.069Z,84.45
2017-07-22T02:00:03.404Z,84.45
2017-07-22T02:05:02.675Z,84.36
2017-07-22T02:10:03.250Z,83.97
2017-07-22T02:15:03.562Z,83.49
2017-07-22T02:20:03.085Z,83.59
2017-07-22T02:25:03.562Z,82.92
2017-07-22T02:30:03.046Z,83.01
2017-07-22T02:35:03.557Z,82.82
2017-07-22T02:40:02.983Z,82.34
2017-07-22T02:45:03.275Z,81.76
2017-07-22T02:50:02.770Z,81.19
2017-07-22T02:55:03.077Z,80.9
2017-07-22T03:00:03.494Z,80.22
2017-07-22T03:05:02.809Z,78.84
2017-07-22T03:10:03.338Z,78.84
2017-07-22T03:15:02.828Z,78.27
2017-07-22T03:20:03.228Z,76.92
2017-07-22T03:25:03.476Z,75.48
2017-07-22T03:30:02.785Z,75.29
2017-07-22T03:35:03.221Z,74.33
2017-07-22T03:40:03.548Z,73.14
2017-07-22T03:45:02.918Z,71.98
2017-07-22T03:50:03.185Z,71.22
2017-07-22T03:55:03.611Z,70.55
2017-07-22T04:00:02.959Z,69.49
2017-07-22T04:05:03.307Z,68.24
2017-07-22T04:10:02.853Z,67.67
2017-07-22T04:15:03.215Z,66.67
2017-07-22T04:20:02.766Z,66.1
2017-07-22T04:25:03.346Z,64.66
2017-07-22T04:30:03.143Z,64.56
2017-07-22T04:35:03.418Z,64.09
2017-07-22T04:40:02.913Z,63.51
2017-07-22T04:45:03.233Z,62.45
2017-07-22T04:50:02.700Z,62.16
2017-07-22T04:55:03.022Z,61.59
2017-07-22T05:00:03.569Z,61.3
2017-07-22T05:05:03.019Z,61.24
2017-07-22T05:10:03.368Z,60.38
2017-07-22T05:15:02.932Z,59.99
2017-07-22T05:20:03.368Z,59.61
2017-07-22T05:25:02.633Z,59.32
2017-07-22T05:30:03.001Z,58.64
2017-07-22T05:35:03.511Z,58.17
2017-07-22T05:40:03.017Z,58.67
2017-07-22T05:45:03.311Z,59.38
2017-07-22T05:50:02.706Z,59.79
2017-07-22T05:55:03.148Z,59.99
2017-07-22T06:00:03.490Z,60.37
2017-07-22T06:05:02.846Z,61.07
2017-07-22T06:10:03.396Z,60.91
2017-07-22T06:15:02.851Z,65.17
2017-07-22T06:20:03.236Z,66.55
2017-07-22T06:25:03.548Z,68.77
2017-07-22T06:30:02.884Z,71.41
2017-07-22T06:35:03.392Z,74.52
2017-07-22T06:40:02.746Z,75.01
2017-07-22T06:45:03.051Z,77.46
2017-07-22T06:50:03.365Z,78.13
2017-07-22T06:55:02.825Z,80.3
2017-07-22T07:00:03.419Z,83.27
2017-07-22T07:05:02.911Z,85.69
2017-07-22T07:10:03.275Z,86.41
2017-07-22T07:15:02.613Z,96.41
2017-07-22T07:20:02.966Z,92.58
2017-07-22T07:25:03.389Z,94.18
2017-07-22T07:30:02.860Z,96.07
2017-07-22T07:35:03.201Z,96.65
2017-07-22T07:40:02.660Z,98.15
2017-07-22T07:45:03.080Z,99.6
2017-07-22T07:50:03.386Z,99.07
2017-07-22T07:55:02.786Z,99.02
2017-07-22T08:00:03.076Z,98.73
2017-07-22T08:05:03.568Z,98.73
2017-07-22T08:10:02.989Z,96.93
2017-07-22T08:15:03.437Z,92.07
2017-07-22T08:20:02.713Z,90.65
2017-07-22T08:25:03.030Z,78.06
2017-07-22T08:30:03.543Z,75.86
2017-07-22T08:35:02.934Z,69.92
2017-07-22T08:40:03.472Z,69.53
2017-07-22T08:45:02.698Z,65.33
2017-07-22T08:50:03.196Z,64.03
2017-07-22T08:55:03.553Z,63.87
2017-07-22T09:00:02.839Z,63.48
2017-07-22T09:05:03.136Z,64.39
2017-07-22T09:10:02.683Z,63.97
2017-07-22T09:15:03.033Z,67.77
2017-07-22T09:20:03.355Z,64.42
2017-07-22T09:25:02.756Z,63.12
2017-07-22T09:30:02.981Z,62.83
2017-07-22T09:35:03.359Z,60.2
2017-07-22T09:40:02.677Z,60.46
2017-07-22T09:45:02.994Z,61.92
2017-07-22T09:50:03.295Z,61.17
2017-07-22T09:55:02.612Z,62.18
2017-07-22T10:00:02.973Z,63.64
2017-07-22T10:05:03.409Z,62.35
2017-07-22T10:10:02.709Z,63.75
2017-07-22T10:15:03.043Z,62.99
2017-07-22T10:20:03.477Z,64
2017-07-22T10:25:02.860Z,64.49
2017-07-22T10:30:03.282Z,65.14
2017-07-22T10:35:02.601Z,66.99
2017-07-22T10:40:02.990Z,69.32
2017-07-22T10:45:03.426Z,68.29
2017-07-22T10:50:02.703Z,68.77
2017-07-22T10:55:03.006Z,69.74
2017-07-22T11:00:03.382Z,70.23
2017-07-22T11:05:02.897Z,69.68
2017-07-22T11:10:03.367Z,72.37
2017-07-22T11:15:02.712Z,72.56
2017-07-22T11:20:03.170Z,69.62
2017-07-22T11:25:02.618Z,68.71
2017-07-22T11:30:02.897Z,71.3
2017-07-22T11:35:03.191Z,70.5
2017-07-22T11:40:03.539Z,66.83
2017-07-22T11:45:02.834Z,67.44
2017-07-22T11:50:03.277Z,66.41
2017-07-22T11:55:02.676Z,66.37
2017-07-22T12:00:03.126Z,64.87
2017-07-22T12:05:03.455Z,65.3
2017-07-22T12:10:02.813Z,65.4
2017-07-22T12:15:03.192Z,65.36
2017-07-22T12:20:03.552Z,63.38
2017-07-22T12:25:02.773Z,62.23
2017-07-22T12:30:03.100Z,62.4
2017-07-22T12:35:03.537Z,62.63
2017-07-22T12:40:02.823Z,60.44
2017-07-22T12:45:03.320Z,60.28
2017-07-22T12:50:02.640Z,60.02
2017-07-22T12:55:03.093Z,60.16
2017-07-22T13:00:03.573Z,61.72
2017-07-22T13:05:03.013Z,61.63
2017-07-22T13:10:03.382Z,62.24
2017-07-22T13:15:02.800Z,61.07
2017-07-22T13:20:03.322Z,60.97
2017-07-22T13:25:02.741Z,61.2
2017-07-22T13:30:02.974Z,60.55
2017-07-22T13:35:03.297Z,61.17
2017-07-22T13:40:02.750Z,61.92
2017-07-22T13:45:03.217Z,61.56
2017-07-22T13:50:03.520Z,62.08
2017-07-22T13:55:02.798Z,60.61
2017-07-22T14:00:03.280Z,61.6
2017-07-22T14:05:03.605Z,62.76
2017-07-22T14:10:02.968Z,62.86
2017-07-22T14:15:03.260Z,62.79
2017-07-22T14:20:02.731Z,62.15
2017-07-22T14:25:03.231Z,61.88
2017-07-22T14:30:02.579Z,62.24
2017-07-22T14:35:03.063Z,62.86
2017-07-22T14:40:03.606Z,64.59
2017-07-22T14:45:03.020Z,64.29
2017-07-22T14:50:03.393Z,63.97
2017-07-22T14:55:02.808Z,65.14
2017-07-22T15:00:03.152Z,65.43
2017-07-22T15:05:03.481Z,65.5
2017-07-22T15:10:02.804Z,65.98
2017-07-22T15:15:03.264Z,65.17
2017-07-22T15:20:02.797Z,63.38
2017-07-22T15:25:03.065Z,63.25
2017-07-22T15:30:03.360Z,64.13
2017-07-22T15:35:02.703Z,64.29
2017-07-22T15:40:03.298Z,66.31
2017-07-22T15:45:02.799Z,66.5
2017-07-22T15:50:03.294Z,66.37
2017-07-22T15:55:02.735Z,66.63
2017-07-22T16:00:03.098Z,67.8
2017-07-22T16:05:03.451Z,67.99
2017-07-22T16:10:02.753Z,68.44
2017-07-22T16:15:03.080Z,69.32
2017-07-22T16:20:03.404Z,69.06
2017-07-22T16:25:02.799Z,68.48
2017-07-22T16:30:03.134Z,67.5
2017-07-22T16:35:03.439Z,68.54
2017-07-22T16:40:02.760Z,68.99
2017-07-22T16:45:03.148Z,69.09
2017-07-22T16:50:03.512Z,68.8
2017-07-22T16:55:02.750Z,69.25
2017-07-22T17:00:03.067Z,71.1
2017-07-22T17:05:03.364Z,75.78
2017-07-22T17:10:02.715Z,76.91
2017-07-22T17:15:03.017Z,79.39
2017-07-22T17:20:03.320Z,79.88
2017-07-22T17:25:02.654Z,79.68
2017-07-22T17:30:02.980Z,80.42
2017-07-22T17:35:03.328Z,81.29
2017-07-22T17:40:02.820Z,81.48
2017-07-22T17:45:03.079Z,82.51
2017-07-22T17:50:03.448Z,83.67
2017-07-22T17:55:02.751Z,85.22
2017-07-22T18:00:03.048Z,86.09
2017-07-22T18:05:03.411Z,86.38
2017-07-22T18:10:02.845Z,86.58
2017-07-22T18:15:03.234Z,86.96
2017-07-22T18:20:02.798Z,87.74
2017-07-22T18:25:03.072Z,88.42
2017-07-22T18:30:03.376Z,89
2017-07-22T18:35:02.857Z,89.83
2017-07-22T18:40:03.286Z,91.08
2017-07-22T18:45:03.540Z,91.96
2017-07-22T18:50:02.830Z,92.73
2017-07-22T18:55:03.173Z,93.46
2017-07-22T19:00:03.545Z,94.23
2017-07-22T19:05:02.983Z,95.29
2017-07-22T19:10:03.467Z,95.73
2017-07-22T19:15:02.826Z,96.31
2017-07-22T19:20:03.290Z,97.09
2017-07-22T19:25:02.671Z,97.52
2017-07-22T19:30:02.989Z,97.81
2017-07-22T19:35:03.386Z,98
2017-07-22T19:40:02.773Z,98.05
2017-07-22T19:45:03.180Z,97.96
2017-07-22T19:50:03.499Z,97.47
2017-07-22T19:55:02.905Z,96.36
2017-07-22T20:00:03.355Z,95.5
2017-07-22T20:05:02.843Z,94.58
2017-07-22T20:10:03.231Z,92.94
2017-07-22T20:15:03.553Z,92.07
2017-07-22T20:20:02.885Z,90.67
2017-07-22T20:25:03.341Z,89.61
2017-07-22T20:30:02.630Z,87.74
2017-07-22T20:35:03.042Z,85.52
2017-07-22T20:40:03.506Z,83.07
2017-07-22T20:45:02.787Z,81.14
2017-07-22T20:50:03.146Z,75.48
2017-07-22T20:55:03.414Z,70.72
2017-07-22T21:00:02.839Z,71.69
2017-07-22T21:05:03.167Z,69.47
2017-07-22T21:10:03.502Z,67.16
2017-07-22T21:15:02.804Z,63.67
2017-07-22T21:20:03.258Z,62.41
2017-07-22T21:25:02.634Z,61.71
2017-07-22T21:30:02.922Z,62.03
2017-07-22T21:35:03.235Z,62.8
2017-07-22T21:40:02.758Z,62.9
2017-07-22T21:45:03.200Z,62.32
2017-07-22T21:50:02.620Z,61.65
2017-07-22T21:55:03.031Z,60.66
2017-07-22T22:00:03.569Z,60.85
2017-07-22T22:05:02.971Z,60.27
2017-07-22T22:10:03.511Z,56.98
2017-07-22T22:15:02.904Z,56.46
2017-07-22T22:20:03.362Z,55.79
2017-07-22T22:25:02.646Z,55.02
2017-07-22T22:30:02.937Z,54.83
2017-07-22T22:35:03.321Z,55.6
2017-07-22T22:40:02.759Z,55.77
2017-07-22T22:45:03.294Z,55.67
2017-07-22T22:50:02.711Z,55.29
2017-07-22T22:55:03.013Z,55.19
2017-07-22T23:00:03.594Z,55.57
2017-07-22T23:05:02.854Z,55.47
2017-07-22T23:10:03.389Z,54.9
2017-07-22T23:15:02.780Z,54.33
2017-07-22T23:20:03.149Z,54.13
2017-07-22T23:25:03.575Z,53.53
2017-07-22T23:30:02.866Z,52.95
2017-07-22T23:35:03.231Z,52.57
2017-07-22T23:40:02.631Z,52.28
2017-07-22T23:45:03.079Z,52.09
2017-07-22T23:50:03.402Z,51.81
2017-07-22T23:55:02.877Z,51.81
